Decoded Metar for PAIW ( in _UNIDENTIFIED) (IATA:N/A) | Meteo·Mobile Aviation Weather
aviador You're here:

PAIW Decoded Metar

in _UNIDENTIFIED
Report Time2019-07-24 04:12:00
UTC Time2019-07-24 04:30:22
Flight Rules ifr IFR
Wind220° at 03 kt
W.Decomp.*RWY 18: 2.6 kt HW 1.4 kt RCW
Visibility8047 m
Phenomena:Mist
Clouds:Overcast 008 Hf
Ceiling800 ft
Temp12°C (ISA -3)
Dew Point12°C (100% RH)
AAT11.5°C
QNH1009 hPa
Density Alt-7 ft
Elevation23 ft
Report Wrong Elevation
Raw Report
PAIW 240412Z AUTO 22003KT 5SM BR OVC008 12/12 A2979 RMK AO2
RAE0358 CIG 003V011 P0000=

Extra information for PAIW:More info

Metar Taf Metar & Taf Last 4 Metars F.Rules Stats Wind Profile Meteogram Temp Stats Metar ALERT Operation Metar Decoded Social comments